createdAt,value
2019-02-24T00:00:03.929Z,100888.27
2019-02-24T00:02:40.545Z,100885.47
2019-02-24T00:05:15.181Z,100889.55
2019-02-24T00:07:50.135Z,100890.95
2019-02-24T00:10:24.829Z,100883.83
2019-02-24T00:12:59.559Z,100876.31
2019-02-24T00:15:34.442Z,100866.74
2019-02-24T00:18:09.081Z,100866.74
2019-02-24T00:20:44.161Z,100870.71
2019-02-24T00:23:18.808Z,100867.18
2019-02-24T00:25:53.319Z,100872.50
2019-02-24T00:28:27.876Z,100871.00
2019-02-24T00:31:02.491Z,100871.81
2019-02-24T00:33:37.156Z,100862.33
2019-02-24T00:36:11.688Z,100862.33
2019-02-24T00:38:45.269Z,100855.07
2019-02-24T00:41:19.637Z,100844.84
2019-02-24T00:43:53.277Z,100845.64
2019-02-24T00:46:27.835Z,100843.42
2019-02-24T00:49:02.320Z,100849.81
2019-02-24T00:51:37.815Z,100851.76
2019-02-24T00:54:12.626Z,100840.97
2019-02-24T00:56:48.128Z,100839.12
2019-02-24T00:59:22.638Z,100843.63
2019-02-24T01:01:57.025Z,100831.98
2019-02-24T01:04:31.848Z,100831.98
2019-02-24T01:07:06.807Z,100828.43
2019-02-24T01:09:41.478Z,100831.75
2019-02-24T01:12:16.187Z,100824.67
2019-02-24T01:14:51.439Z,100824.67
2019-02-24T01:17:25.766Z,100827.83
2019-02-24T01:19:59.487Z,100822.25
2019-02-24T01:22:34.110Z,100817.10
2019-02-24T01:25:08.915Z,100817.10
2019-02-24T01:27:44.637Z,100817.88
2019-02-24T01:30:18.480Z,100815.02
2019-02-24T01:32:58.521Z,100808.16
2019-02-24T01:35:35.334Z,100802.21
2019-02-24T01:38:09.817Z,100800.34
2019-02-24T01:40:44.532Z,100803.44
2019-02-24T01:43:18.997Z,100791.91
2019-02-24T01:45:53.745Z,100791.91
2019-02-24T01:48:28.569Z,100798.53
2019-02-24T01:51:02.283Z,100796.64
2019-02-24T01:53:36.885Z,100796.64
2019-02-24T01:56:11.438Z,100793.04
2019-02-24T01:58:46.082Z,100795.14
2019-02-24T02:01:23.579Z,100787.47
2019-02-24T02:03:59.506Z,100787.60
2019-02-24T02:06:34.119Z,100779.69
2019-02-24T02:09:08.710Z,100769.53
2019-02-24T02:11:43.833Z,100767.41
2019-02-24T02:14:18.506Z,100765.56
2019-02-24T02:16:53.320Z,100762.45
2019-02-24T02:22:20.649Z,100768.27
2019-02-24T02:24:55.657Z,100768.55
2019-02-24T02:27:29.491Z,100768.55
2019-02-24T02:30:05.117Z,100770.02
2019-02-24T02:32:40.831Z,100767.66
2019-02-24T02:35:15.405Z,100774.61
2019-02-24T02:37:49.819Z,100776.45
2019-02-24T02:40:24.528Z,100769.53
2019-02-24T02:43:00.029Z,100771.12
2019-02-24T02:45:34.579Z,100771.12
2019-02-24T02:48:08.274Z,100770.14
2019-02-24T02:50:45.682Z,100773.45
2019-02-24T02:53:19.507Z,100770.00
2019-02-24T02:55:54.066Z,100767.14
2019-02-24T02:58:28.586Z,100765.28
2019-02-24T03:01:02.285Z,100760.59
2019-02-24T03:03:36.944Z,100757.62
2019-02-24T03:06:25.793Z,100764.91
2019-02-24T03:09:00.535Z,100763.83
2019-02-24T03:11:34.999Z,100763.80
2019-02-24T03:14:09.723Z,100762.20
2019-02-24T03:16:44.045Z,100759.33
2019-02-24T03:19:18.704Z,100766.04
2019-02-24T03:21:52.494Z,100765.54
2019-02-24T03:24:26.870Z,100754.89
2019-02-24T03:27:03.321Z,100757.98
2019-02-24T03:29:38.000Z,100759.20
2019-02-24T03:32:12.325Z,100755.89
2019-02-24T03:34:46.833Z,100759.23
2019-02-24T03:37:24.184Z,100754.17
2019-02-24T03:39:58.665Z,100752.56
2019-02-24T03:42:33.160Z,100758.58
2019-02-24T03:45:11.322Z,100758.58
2019-02-24T03:47:45.612Z,100760.70
2019-02-24T03:50:20.283Z,100755.63
2019-02-24T03:52:54.989Z,100752.65
2019-02-24T03:55:30.067Z,100766.48
2019-02-24T03:58:04.551Z,100763.64
2019-02-24T04:00:39.065Z,100752.17
2019-02-24T04:03:13.657Z,100752.17
2019-02-24T04:05:48.684Z,100766.77
2019-02-24T04:08:22.512Z,100771.14
2019-02-24T04:10:57.518Z,100769.89
2019-02-24T04:13:32.323Z,100778.49
2019-02-24T04:16:06.783Z,100778.49
2019-02-24T04:18:41.564Z,100778.40
2019-02-24T04:21:18.537Z,100775.26
2019-02-24T04:23:54.135Z,100772.23
2019-02-24T04:26:28.596Z,100772.23
2019-02-24T04:29:03.079Z,100761.67
2019-02-24T04:31:37.636Z,100761.67
2019-02-24T04:34:11.475Z,100782.33
2019-02-24T04:36:46.108Z,100779.56
2019-02-24T04:39:20.815Z,100779.56
2019-02-24T04:41:55.310Z,100788.95
2019-02-24T04:44:31.661Z,100790.83
2019-02-24T04:47:05.505Z,100799.50
2019-02-24T04:49:39.538Z,100805.04
2019-02-24T04:52:14.317Z,100813.59
2019-02-24T04:54:48.963Z,100814.35
2019-02-24T04:57:23.666Z,100815.20
2019-02-24T04:59:58.575Z,100811.69
2019-02-24T05:02:32.997Z,100808.92
2019-02-24T05:05:07.561Z,100808.92
2019-02-24T05:07:42.104Z,100811.98
2019-02-24T05:10:16.528Z,100811.98
2019-02-24T05:12:50.894Z,100817.52
2019-02-24T05:15:25.587Z,100812.28
2019-02-24T05:18:00.544Z,100808.23
2019-02-24T05:20:35.000Z,100801.13
2019-02-24T05:23:09.816Z,100801.13
2019-02-24T05:25:45.468Z,100823.30
2019-02-24T05:28:20.089Z,100814.62
2019-02-24T05:30:54.569Z,100814.62
2019-02-24T05:33:31.810Z,100818.45
2019-02-24T05:36:06.440Z,100817.00
2019-02-24T05:38:41.006Z,100823.38
2019-02-24T05:41:18.385Z,100826.73
2019-02-24T05:43:52.966Z,100820.84
2019-02-24T05:46:27.304Z,100821.92
2019-02-24T05:49:02.498Z,100823.66
2019-02-24T05:51:37.058Z,100818.91
2019-02-24T05:54:11.661Z,100818.91
2019-02-24T05:56:46.048Z,100824.78
2019-02-24T05:59:22.075Z,100824.78
2019-02-24T06:01:58.207Z,100827.90
2019-02-24T06:04:32.972Z,100840.73
2019-02-24T06:07:07.444Z,100828.18
2019-02-24T06:09:41.833Z,100835.89
2019-02-24T06:12:17.431Z,100841.45
2019-02-24T06:14:51.964Z,100840.68
2019-02-24T06:17:26.626Z,100835.38
2019-02-24T06:20:02.322Z,100840.86
2019-02-24T06:22:37.321Z,100841.80
2019-02-24T06:25:14.112Z,100838.55
2019-02-24T06:27:48.654Z,100839.89
2019-02-24T06:30:23.060Z,100836.75
2019-02-24T06:32:57.649Z,100836.75
2019-02-24T06:35:31.300Z,100850.03
2019-02-24T06:38:05.802Z,100861.09
2019-02-24T06:40:40.476Z,100864.57
2019-02-24T06:43:15.315Z,100871.41
2019-02-24T06:45:49.823Z,100871.41
2019-02-24T06:48:24.116Z,100870.88
2019-02-24T06:51:01.759Z,100886.34
2019-02-24T06:53:36.308Z,100894.27
2019-02-24T06:56:10.808Z,100892.84
2019-02-24T06:58:45.343Z,100895.46
2019-02-24T07:01:19.820Z,100885.54
2019-02-24T07:03:54.704Z,100889.38
2019-02-24T07:06:29.326Z,100895.11
2019-02-24T07:09:05.770Z,100901.05
2019-02-24T07:11:40.463Z,100914.31
2019-02-24T07:14:15.076Z,100912.19
2019-02-24T07:16:52.406Z,100912.19
2019-02-24T07:19:26.827Z,100920.02
2019-02-24T07:22:01.533Z,100918.91
2019-02-24T07:24:36.737Z,100918.39
2019-02-24T07:27:13.221Z,100918.39
2019-02-24T07:29:49.810Z,100911.86
2019-02-24T07:32:24.307Z,100922.12
2019-02-24T07:35:00.221Z,100930.72
2019-02-24T07:37:37.525Z,100925.30
2019-02-24T07:40:12.369Z,100944.16
2019-02-24T07:42:47.055Z,100944.16
2019-02-24T07:45:26.307Z,100942.66
2019-02-24T07:48:01.150Z,100947.05
2019-02-24T07:50:35.856Z,100953.46
2019-02-24T07:53:11.068Z,100959.50
2019-02-24T07:55:46.324Z,100962.00
2019-02-24T07:58:22.512Z,100958.54
2019-02-24T08:00:56.705Z,100954.53
2019-02-24T08:03:36.071Z,100958.54
2019-02-24T08:06:08.319Z,100948.61
2019-02-24T08:08:42.801Z,100948.61
2019-02-24T08:11:17.483Z,100960.82
2019-02-24T08:13:52.805Z,100960.77
2019-02-24T08:16:27.539Z,100966.84
2019-02-24T08:19:02.527Z,100972.51
2019-02-24T08:21:37.570Z,100972.51
2019-02-24T08:24:11.485Z,100970.83
2019-02-24T08:26:46.538Z,100975.62
2019-02-24T08:29:21.179Z,100953.16
2019-02-24T08:31:56.318Z,100962.02
2019-02-24T08:34:30.821Z,100957.78
2019-02-24T08:37:06.144Z,100951.02
2019-02-24T08:39:41.151Z,100954.37
2019-02-24T08:42:15.880Z,100952.52
2019-02-24T08:44:50.811Z,100958.94
2019-02-24T08:47:25.737Z,100958.00
2019-02-24T08:50:00.309Z,100963.39
2019-02-24T08:52:35.187Z,100956.09
2019-02-24T08:55:10.187Z,100964.33
2019-02-24T08:57:45.321Z,100957.27
2019-02-24T09:00:20.056Z,100956.17
2019-02-24T09:02:54.828Z,100951.87
2019-02-24T09:05:29.853Z,100947.04
2019-02-24T09:08:04.785Z,100950.11
2019-02-24T09:10:39.573Z,100955.76
2019-02-24T09:13:13.264Z,100951.99
2019-02-24T09:15:47.939Z,100951.99
2019-02-24T09:18:22.568Z,100958.04
2019-02-24T09:20:57.325Z,100943.25
2019-02-24T09:23:32.074Z,100943.25
2019-02-24T09:26:07.156Z,100959.83
2019-02-24T09:28:42.139Z,100952.98
2019-02-24T09:31:17.100Z,100949.97
2019-02-24T09:33:51.971Z,100950.92
2019-02-24T09:36:26.910Z,100950.33
2019-02-24T09:39:01.609Z,100953.59
2019-02-24T09:41:38.110Z,100954.90
2019-02-24T09:44:12.883Z,100942.44
2019-02-24T09:46:47.548Z,100943.02
2019-02-24T09:49:21.459Z,100933.38
2019-02-24T09:51:57.026Z,100931.08
2019-02-24T09:54:33.116Z,100933.58
2019-02-24T09:57:08.481Z,100923.73
2019-02-24T09:59:42.943Z,100909.59
2019-02-24T10:02:22.766Z,100909.59
2019-02-24T10:04:58.655Z,100901.52
2019-02-24T10:07:33.501Z,100898.77
2019-02-24T10:10:12.630Z,100886.73
2019-02-24T10:12:46.694Z,100886.73
2019-02-24T10:15:21.993Z,100878.50
2019-02-24T10:17:56.834Z,100875.53
2019-02-24T10:20:32.323Z,100873.83
2019-02-24T10:23:07.309Z,100861.75
2019-02-24T10:25:42.309Z,100851.84
2019-02-24T10:28:17.516Z,100851.84
2019-02-24T10:30:52.271Z,100859.30
2019-02-24T10:33:26.827Z,100859.30
2019-02-24T10:36:01.743Z,100850.37
2019-02-24T10:38:36.610Z,100850.56
2019-02-24T10:41:10.927Z,100854.32
2019-02-24T10:43:46.068Z,100865.34
2019-02-24T10:46:20.682Z,100868.58
2019-02-24T10:49:03.132Z,100871.98
2019-02-24T10:51:34.014Z,100862.77
2019-02-24T10:54:09.066Z,100864.18
2019-02-24T10:56:47.594Z,100867.23
2019-02-24T10:59:22.319Z,100862.39
2019-02-24T11:01:57.091Z,100870.23
2019-02-24T11:04:31.803Z,100866.64
2019-02-24T11:07:06.685Z,100871.83
2019-02-24T11:09:41.458Z,100860.07
2019-02-24T11:12:16.032Z,100859.00
2019-02-24T11:14:50.589Z,100859.00
2019-02-24T11:17:25.317Z,100866.61
2019-02-24T11:20:00.004Z,100866.52
2019-02-24T11:22:35.152Z,100870.73
2019-02-24T11:25:10.540Z,100853.00
2019-02-24T11:27:44.543Z,100849.44
2019-02-24T11:30:18.517Z,100833.87
2019-02-24T11:32:53.448Z,100833.87
2019-02-24T11:35:28.303Z,100823.40
2019-02-24T11:38:03.546Z,100823.40
2019-02-24T11:40:39.536Z,100835.45
2019-02-24T11:43:15.397Z,100835.59
2019-02-24T11:45:54.989Z,100829.81
2019-02-24T11:48:29.114Z,100829.81
2019-02-24T11:51:04.365Z,100826.73
2019-02-24T11:53:38.638Z,100825.58
2019-02-24T11:56:12.844Z,100826.33
2019-02-24T11:58:54.230Z,100825.56
2019-02-24T12:01:28.687Z,100821.87
2019-02-24T12:04:04.119Z,100807.15
2019-02-24T12:06:45.486Z,100801.36
2019-02-24T12:09:20.567Z,100775.47
2019-02-24T12:11:57.142Z,100781.75
2019-02-24T12:14:31.549Z,100781.75
2019-02-24T12:17:10.010Z,100787.68
2019-02-24T12:19:47.490Z,100789.08
2019-02-24T12:22:52.729Z,100789.08
2019-02-24T12:25:29.626Z,100785.83
2019-02-24T12:28:03.142Z,100789.47
2019-02-24T12:30:46.014Z,100776.44
2019-02-24T12:33:26.104Z,100775.37
2019-02-24T12:36:00.564Z,100775.30
2019-02-24T12:38:34.620Z,100783.61
2019-02-24T12:41:18.250Z,100785.22
2019-02-24T12:43:54.521Z,100785.22
2019-02-24T12:46:35.511Z,100787.14
2019-02-24T12:49:09.903Z,100783.06
2019-02-24T12:51:44.480Z,100783.06
2019-02-24T12:54:18.895Z,100785.92
2019-02-24T12:56:53.876Z,100785.92
2019-02-24T12:59:28.526Z,100787.91
2019-02-24T13:02:05.624Z,100778.06
2019-02-24T13:04:37.967Z,100778.06
2019-02-24T13:07:13.663Z,100781.00
2019-02-24T13:09:48.536Z,100782.66
2019-02-24T13:12:22.773Z,100771.58
2019-02-24T13:14:58.461Z,100771.58
2019-02-24T13:17:32.604Z,100766.31
2019-02-24T13:20:10.092Z,100772.25
2019-02-24T13:22:44.687Z,100772.25
2019-02-24T13:25:21.495Z,100777.28
2019-02-24T13:27:57.939Z,100777.95
2019-02-24T13:30:33.735Z,100777.95
2019-02-24T13:33:08.398Z,100776.72
2019-02-24T13:35:44.537Z,100759.80
2019-02-24T13:38:26.511Z,100759.36
2019-02-24T13:41:06.014Z,100759.36
2019-02-24T13:43:44.357Z,100762.56
2019-02-24T13:46:20.747Z,100763.16
2019-02-24T13:48:57.570Z,100757.12
2019-02-24T13:51:36.462Z,100739.12
2019-02-24T13:54:25.941Z,100734.75
2019-02-24T13:57:24.954Z,100734.75
2019-02-24T14:00:08.535Z,100739.94
2019-02-24T14:02:44.336Z,100734.20
2019-02-24T14:05:20.966Z,100734.20
2019-02-24T14:08:02.752Z,100733.82
2019-02-24T14:10:41.941Z,100727.89
2019-02-24T14:13:40.990Z,100727.89
2019-02-24T14:16:25.562Z,100725.53
2019-02-24T14:18:58.360Z,100714.31
2019-02-24T14:21:32.787Z,100721.55
2019-02-24T14:24:10.404Z,100717.06
2019-02-24T14:26:50.297Z,100728.95
2019-02-24T14:29:24.736Z,100722.59
2019-02-24T14:31:59.740Z,100721.50
2019-02-24T14:34:35.674Z,100729.93
2019-02-24T14:37:11.506Z,100727.78
2019-02-24T14:39:45.500Z,100721.05
2019-02-24T14:42:21.156Z,100711.77
2019-02-24T14:44:55.546Z,100711.77
2019-02-24T14:47:29.253Z,100719.06
2019-02-24T14:50:06.320Z,100729.84
2019-02-24T14:52:40.752Z,100728.41
2019-02-24T14:55:14.115Z,100736.12
2019-02-24T14:57:48.519Z,100734.88
2019-02-24T15:00:22.892Z,100734.34
2019-02-24T15:02:57.553Z,100737.66
2019-02-24T15:05:32.318Z,100736.20
2019-02-24T15:08:08.265Z,100738.96
2019-02-24T15:10:42.417Z,100740.94
2019-02-24T15:13:17.754Z,100745.88
2019-02-24T15:15:52.030Z,100745.88
2019-02-24T15:18:25.977Z,100752.50
2019-02-24T15:21:00.066Z,100750.64
2019-02-24T15:23:34.401Z,100751.23
2019-02-24T15:26:10.326Z,100747.67
2019-02-24T15:28:55.612Z,100745.56
2019-02-24T15:31:30.697Z,100740.16
2019-02-24T15:34:06.467Z,100733.56
2019-02-24T15:36:40.783Z,100739.56
2019-02-24T15:39:14.965Z,100739.56
2019-02-24T15:41:49.309Z,100735.67
2019-02-24T15:44:26.052Z,100736.98
2019-02-24T15:47:01.914Z,100734.63
2019-02-24T15:49:38.163Z,100734.88
2019-02-24T15:52:12.273Z,100733.05
2019-02-24T15:54:46.901Z,100736.31
2019-02-24T15:57:23.158Z,100723.24
2019-02-24T15:59:57.514Z,100725.36
2019-02-24T16:02:32.054Z,100726.27
2019-02-24T16:05:08.573Z,100729.13
2019-02-24T16:07:45.258Z,100735.83
2019-02-24T16:10:19.887Z,100735.83
2019-02-24T16:12:54.222Z,100735.99
2019-02-24T16:15:28.571Z,100746.76
2019-02-24T16:18:02.516Z,100736.28
2019-02-24T16:20:36.497Z,100736.28
2019-02-24T16:23:12.620Z,100753.94
2019-02-24T16:25:48.463Z,100739.75
2019-02-24T16:28:22.613Z,100747.45
2019-02-24T16:30:56.059Z,100749.77
2019-02-24T16:33:30.813Z,100749.77
2019-02-24T16:36:06.929Z,100753.42
2019-02-24T16:38:41.709Z,100758.04
2019-02-24T16:41:15.029Z,100752.06
2019-02-24T16:43:49.917Z,100761.28
2019-02-24T16:46:24.759Z,100762.09
2019-02-24T16:48:59.301Z,100767.55
2019-02-24T16:51:35.758Z,100772.67
2019-02-24T16:54:10.521Z,100768.66
2019-02-24T16:56:44.820Z,100765.13
2019-02-24T16:59:20.918Z,100766.95
2019-02-24T17:01:56.591Z,100778.12
2019-02-24T17:04:34.321Z,100779.20
2019-02-24T17:07:10.521Z,100782.75
2019-02-24T17:10:05.837Z,100792.30
2019-02-24T17:12:41.708Z,100792.30
2019-02-24T17:15:15.816Z,100798.16
2019-02-24T17:17:50.468Z,100797.61
2019-02-24T17:20:28.546Z,100801.36
2019-02-24T17:23:02.214Z,100803.94
2019-02-24T17:25:38.494Z,100803.94
2019-02-24T17:28:12.583Z,100816.29
2019-02-24T17:30:46.880Z,100832.89
2019-02-24T17:33:29.728Z,100832.89
2019-02-24T17:35:59.507Z,100836.09
2019-02-24T17:38:33.598Z,100835.13
2019-02-24T17:41:08.408Z,100849.34
2019-02-24T17:43:42.848Z,100850.26
2019-02-24T17:46:21.037Z,100857.54
2019-02-24T17:48:55.514Z,100854.63
2019-02-24T17:51:31.754Z,100865.14
2019-02-24T17:54:05.509Z,100865.14
2019-02-24T17:56:39.900Z,100873.06
2019-02-24T17:59:17.011Z,100873.06
2019-02-24T18:01:53.692Z,100877.09
2019-02-24T18:04:29.613Z,100881.17
2019-02-24T18:07:04.305Z,100875.02
2019-02-24T18:09:41.504Z,100875.02
2019-02-24T18:12:49.519Z,100881.31
2019-02-24T18:15:04.144Z,100880.10
2019-02-24T18:17:40.440Z,100878.05
2019-02-24T18:20:15.471Z,100877.80
2019-02-24T18:22:50.304Z,100891.33
2019-02-24T18:25:25.972Z,100891.33
2019-02-24T18:28:00.027Z,100895.47
2019-02-24T18:30:34.490Z,100900.16
2019-02-24T18:33:08.638Z,100894.33
2019-02-24T18:35:42.979Z,100889.44
2019-02-24T18:38:17.292Z,100899.52
2019-02-24T18:40:51.339Z,100892.25
2019-02-24T18:43:25.853Z,100892.70
2019-02-24T18:46:00.338Z,100897.33
2019-02-24T18:48:35.358Z,100888.32
2019-02-24T18:51:12.180Z,100883.98
2019-02-24T18:53:46.545Z,100881.36
2019-02-24T18:56:20.980Z,100869.25
2019-02-24T18:58:55.579Z,100869.25
2019-02-24T19:01:42.016Z,100876.02
2019-02-24T19:04:21.473Z,100876.43
2019-02-24T19:06:59.527Z,100875.30
2019-02-24T19:09:34.041Z,100860.03
2019-02-24T19:12:10.710Z,100860.03
2019-02-24T19:14:45.948Z,100866.55
2019-02-24T19:17:20.574Z,100867.11
2019-02-24T19:19:54.734Z,100859.09
2019-02-24T19:22:32.236Z,100859.09
2019-02-24T19:27:52.574Z,100866.02
2019-02-24T19:30:26.390Z,100862.73
2019-02-24T19:33:04.097Z,100868.93
2019-02-24T19:35:40.149Z,100873.81
2019-02-24T19:38:15.102Z,100880.52
2019-02-24T19:41:06.467Z,100879.80
2019-02-24T19:43:30.865Z,100873.75
2019-02-24T19:46:06.084Z,100878.59
2019-02-24T19:48:44.319Z,100876.78
2019-02-24T19:51:20.342Z,100881.22
2019-02-24T19:53:54.660Z,100894.47
2019-02-24T19:56:29.154Z,100896.84
2019-02-24T19:59:05.478Z,100896.84
2019-02-24T20:01:42.574Z,100895.43
2019-02-24T20:04:17.625Z,100895.43
2019-02-24T20:06:54.872Z,100894.20
2019-02-24T20:09:30.659Z,100903.75
2019-02-24T20:12:04.656Z,100897.11
2019-02-24T20:14:39.005Z,100899.31
2019-02-24T20:17:13.525Z,100899.31
2019-02-24T20:19:47.894Z,100903.12
2019-02-24T20:22:22.651Z,100912.90
2019-02-24T20:25:01.981Z,100900.48
2019-02-24T20:27:40.819Z,100907.45
2019-02-24T20:30:29.877Z,100908.78
2019-02-24T20:33:06.542Z,100907.33
2019-02-24T20:35:41.620Z,100917.98
2019-02-24T20:38:17.041Z,100912.18
2019-02-24T20:40:53.442Z,100903.05
2019-02-24T20:43:27.509Z,100900.98
2019-02-24T20:46:02.055Z,100887.33
2019-02-24T20:48:36.523Z,100887.33
2019-02-24T20:51:11.153Z,100884.67
2019-02-24T20:53:45.485Z,100884.67
2019-02-24T20:56:20.314Z,100875.36
2019-02-24T20:58:55.013Z,100875.36
2019-02-24T21:01:31.502Z,100885.05
2019-02-24T21:04:05.868Z,100888.63
2019-02-24T21:06:40.853Z,100891.05
2019-02-24T21:09:16.100Z,100889.44
2019-02-24T21:11:51.526Z,100884.30
2019-02-24T21:14:26.411Z,100874.56
2019-02-24T21:17:01.318Z,100886.29
2019-02-24T21:20:09.225Z,100886.29
2019-02-24T21:23:09.486Z,100887.34
2019-02-24T21:25:45.024Z,100890.64
2019-02-24T21:28:20.309Z,100893.36
2019-02-24T21:30:55.028Z,100892.62
2019-02-24T21:33:29.834Z,100889.55
2019-02-24T21:36:04.549Z,100892.77
2019-02-24T21:38:39.132Z,100894.59
2019-02-24T21:41:13.992Z,100895.98
2019-02-24T21:43:48.751Z,100893.41
2019-02-24T21:46:23.595Z,100880.16
2019-02-24T21:48:58.165Z,100886.66
2019-02-24T21:51:32.959Z,100878.14
2019-02-24T21:54:08.009Z,100877.84
2019-02-24T21:56:42.571Z,100883.32
2019-02-24T21:59:16.677Z,100880.27
2019-02-24T22:01:50.505Z,100878.52
2019-02-24T22:04:29.578Z,100876.52
2019-02-24T22:07:04.319Z,100871.39
2019-02-24T22:09:38.796Z,100871.39
2019-02-24T22:12:13.981Z,100873.19
2019-02-24T22:14:48.524Z,100876.52
2019-02-24T22:17:22.280Z,100872.77
2019-02-24T22:19:57.078Z,100877.00
2019-02-24T22:22:31.691Z,100878.00
2019-02-24T22:25:08.321Z,100880.32
2019-02-24T22:27:43.033Z,100880.20
2019-02-24T22:30:17.882Z,100882.31
2019-02-24T22:32:52.330Z,100881.67
2019-02-24T22:35:28.650Z,100880.75
2019-02-24T22:38:03.053Z,100881.69
2019-02-24T22:40:44.333Z,100889.11
2019-02-24T22:43:19.385Z,100892.34
2019-02-24T22:45:54.049Z,100899.45
2019-02-24T22:48:28.547Z,100904.13
2019-02-24T22:51:03.042Z,100905.30
2019-02-24T22:53:37.819Z,100891.71
2019-02-24T22:56:12.328Z,100912.45
2019-02-24T22:58:47.116Z,100907.96
2019-02-24T23:01:27.733Z,100915.32
2019-02-24T23:04:13.020Z,100910.61
2019-02-24T23:06:47.325Z,100910.61
2019-02-24T23:09:21.835Z,100908.05
2019-02-24T23:11:56.523Z,100906.02
2019-02-24T23:14:31.176Z,100901.48
2019-02-24T23:17:05.780Z,100901.48
2019-02-24T23:19:40.537Z,100909.47
2019-02-24T23:22:15.723Z,100906.55
2019-02-24T23:24:50.344Z,100906.55
2019-02-24T23:27:26.689Z,100908.76
2019-02-24T23:30:00.850Z,100918.77
2019-02-24T23:32:35.557Z,100911.27
2019-02-24T23:35:09.605Z,100916.20
2019-02-24T23:37:43.412Z,100916.20
2019-02-24T23:40:17.882Z,100916.50
2019-02-24T23:42:52.650Z,100907.77
2019-02-24T23:45:26.464Z,100905.13
2019-02-24T23:48:01.352Z,100916.78
2019-02-24T23:50:36.144Z,100917.93
2019-02-24T23:53:16.800Z,100910.36
2019-02-24T23:55:51.514Z,100910.84
2019-02-24T23:58:27.849Z,100905.97
